createdAt,value
2019-03-01T00:00:29.722Z,149946.31
2019-03-01T00:03:00.264Z,149955.23
2019-03-01T00:06:17.185Z,149956.52
2019-03-01T00:09:40.802Z,149959.03
2019-03-01T00:13:12.494Z,149960.31
2019-03-01T00:16:39.150Z,149961.59
2019-03-01T00:20:11.838Z,149961.59
2019-03-01T00:23:24.708Z,149966.67
2019-03-01T00:26:29.596Z,149964.11
2019-03-01T00:29:37.158Z,149966.67
2019-03-01T00:32:55.904Z,149966.67
2019-03-01T00:36:42.942Z,149964.11
2019-03-01T00:39:56.441Z,149964.11
2019-03-01T00:43:05.452Z,149971.75
2019-03-01T00:45:35.998Z,149974.31
2019-03-01T00:48:06.475Z,149978.11
2019-03-01T00:50:36.951Z,149976.83
2019-03-01T00:53:07.481Z,149973.03
2019-03-01T00:55:37.952Z,149967.95
2019-03-01T00:58:08.444Z,149980.63
2019-03-01T01:00:44.372Z,149979.39
2019-03-01T01:03:14.858Z,149976.83
2019-03-01T01:05:45.391Z,149969.19
2019-03-01T01:08:15.907Z,149969.19
2019-03-01T01:10:46.403Z,149969.19
2019-03-01T01:13:16.909Z,149975.55
2019-03-01T01:15:47.498Z,149978.11
2019-03-01T01:18:18.278Z,149981.91
2019-03-01T01:20:49.042Z,149984.47
2019-03-01T01:23:19.607Z,149983.19
2019-03-01T01:25:50.367Z,149988.25
2019-03-01T01:28:20.918Z,149988.25
2019-03-01T01:30:51.443Z,149975.55
2019-03-01T01:33:21.915Z,149974.31
2019-03-01T01:35:52.416Z,149961.59
2019-03-01T01:38:22.991Z,149966.67
2019-03-01T01:40:53.502Z,149962.83
2019-03-01T01:43:24.245Z,149947.59
2019-03-01T01:45:55.301Z,149945.09
2019-03-01T01:48:26.058Z,149946.31
2019-03-01T01:50:56.596Z,149941.25
2019-03-01T01:53:27.123Z,149938.73
2019-03-01T01:55:57.693Z,149942.53
2019-03-01T01:58:28.205Z,149946.31
2019-03-01T02:00:58.974Z,149941.25
2019-03-01T02:03:29.558Z,149939.97
2019-03-01T02:06:00.139Z,149939.97
2019-03-01T02:08:30.857Z,149929.81
2019-03-01T02:11:01.645Z,149919.67
2019-03-01T02:13:32.157Z,149929.81
2019-03-01T02:16:02.691Z,149928.53
2019-03-01T02:18:33.191Z,149918.39
2019-03-01T02:21:03.956Z,149926.03
2019-03-01T02:23:34.479Z,149920.95
2019-03-01T02:26:05.008Z,149920.95
2019-03-01T02:28:35.615Z,149899.38
2019-03-01T02:31:07.508Z,149903.16
2019-03-01T02:33:38.054Z,149895.53
2019-03-01T02:36:08.565Z,149900.59
2019-03-01T02:38:39.177Z,149906.95
2019-03-01T02:41:09.676Z,149896.81
2019-03-01T02:43:40.742Z,149885.38
2019-03-01T02:46:11.292Z,149889.17
2019-03-01T02:48:41.802Z,149884.09
2019-03-01T02:51:12.300Z,149882.81
2019-03-01T02:53:43.088Z,149882.81
2019-03-01T02:56:13.678Z,149885.38
2019-03-01T02:58:44.233Z,149882.81
2019-03-01T03:01:15.070Z,149873.95
2019-03-01T03:03:45.823Z,149880.31
2019-03-01T03:06:33.778Z,149877.75
2019-03-01T03:09:06.717Z,149877.75
2019-03-01T03:11:37.266Z,149881.58
2019-03-01T03:14:07.821Z,149872.67
2019-03-01T03:16:38.350Z,149875.23
2019-03-01T03:19:08.942Z,149880.31
2019-03-01T03:21:39.671Z,149887.94
2019-03-01T03:24:10.180Z,149879.03
2019-03-01T03:26:40.747Z,149862.53
2019-03-01T03:29:11.397Z,149861.23
2019-03-01T03:31:41.987Z,149863.81
2019-03-01T03:34:12.545Z,149861.23
2019-03-01T03:36:43.550Z,149863.81
2019-03-01T03:39:14.071Z,149853.61
2019-03-01T03:41:44.597Z,149849.81
2019-03-01T03:44:15.081Z,149856.17
2019-03-01T03:46:45.601Z,149863.81
2019-03-01T03:49:16.145Z,149861.23
2019-03-01T03:51:46.732Z,149867.59
2019-03-01T03:54:17.188Z,149858.73
2019-03-01T03:56:47.744Z,149870.16
2019-03-01T03:59:18.227Z,149877.75
2019-03-01T04:01:48.891Z,149881.58
2019-03-01T04:04:19.443Z,149879.03
2019-03-01T04:06:50.059Z,149872.67
2019-03-01T04:09:20.620Z,149884.09
2019-03-01T04:11:51.127Z,149872.67
2019-03-01T04:14:21.903Z,149871.39
2019-03-01T04:16:52.409Z,149875.23
2019-03-01T04:19:22.938Z,149870.16
2019-03-01T04:21:53.744Z,149870.16
2019-03-01T04:24:24.285Z,149867.59
2019-03-01T04:26:55.194Z,149877.75
2019-03-01T04:29:25.798Z,149880.31
2019-03-01T04:31:56.634Z,149879.03
2019-03-01T04:34:27.202Z,149885.38
2019-03-01T04:36:57.787Z,149885.38
2019-03-01T04:39:28.611Z,149879.03
2019-03-01T04:41:59.415Z,149882.81
2019-03-01T04:44:29.944Z,149875.23
2019-03-01T04:47:00.454Z,149873.95
2019-03-01T04:49:31.066Z,149876.52
2019-03-01T04:52:21.679Z,149872.67
2019-03-01T04:54:52.239Z,149870.16
2019-03-01T04:57:22.827Z,149872.67
2019-03-01T04:59:53.367Z,149875.23
2019-03-01T05:02:23.886Z,149873.95
2019-03-01T05:04:54.395Z,149863.81
2019-03-01T05:07:25.174Z,149866.31
2019-03-01T05:09:55.727Z,149866.31
2019-03-01T05:12:26.231Z,149868.88
2019-03-01T05:14:56.733Z,149866.31
2019-03-01T05:17:27.249Z,149881.58
2019-03-01T05:19:57.771Z,149877.75
2019-03-01T05:22:28.320Z,149872.67
2019-03-01T05:24:58.862Z,149871.39
2019-03-01T05:27:29.389Z,149880.31
2019-03-01T05:29:59.947Z,149886.66
2019-03-01T05:32:30.602Z,149877.75
2019-03-01T05:35:01.122Z,149877.75
2019-03-01T05:37:31.937Z,149873.95
2019-03-01T05:40:02.713Z,149875.23
2019-03-01T05:42:33.786Z,149881.58
2019-03-01T05:45:04.975Z,149887.94
2019-03-01T05:47:35.762Z,149889.17
2019-03-01T05:50:07.186Z,149891.73
2019-03-01T05:52:37.682Z,149893.02
2019-03-01T05:55:08.224Z,149895.53
2019-03-01T05:57:59.251Z,149904.44
2019-03-01T06:00:29.831Z,149906.95
2019-03-01T06:03:40.031Z,149904.44
2019-03-01T06:06:11.181Z,149908.23
2019-03-01T06:09:20.678Z,149900.59
2019-03-01T06:12:32.639Z,149896.81
2019-03-01T06:15:30.196Z,149891.73
2019-03-01T06:19:13.392Z,149895.53
2019-03-01T06:22:49.158Z,149895.53
2019-03-01T06:25:58.406Z,149886.66
2019-03-01T06:29:22.538Z,149880.31
2019-03-01T06:32:07.617Z,149873.95
2019-03-01T06:35:39.666Z,149867.59
2019-03-01T06:39:45.720Z,149877.75
2019-03-01T06:43:13.375Z,149863.81
2019-03-01T06:46:40.168Z,149861.23
2019-03-01T06:49:16.447Z,149859.95
2019-03-01T06:51:47.281Z,149853.61
2019-03-01T06:54:17.797Z,149853.61
2019-03-01T06:56:48.350Z,149856.17
2019-03-01T06:59:18.838Z,149852.38
2019-03-01T07:01:49.718Z,149854.89
2019-03-01T07:04:21.348Z,149858.73
2019-03-01T07:06:51.923Z,149851.09
2019-03-01T07:09:22.438Z,149840.95
2019-03-01T07:11:52.967Z,149849.81
2019-03-01T07:14:23.734Z,149844.75
2019-03-01T07:16:54.847Z,149843.47
2019-03-01T07:19:25.950Z,149846.02
2019-03-01T07:21:56.562Z,149846.02
2019-03-01T07:24:27.055Z,149843.47
2019-03-01T07:26:57.584Z,149843.47
2019-03-01T07:29:28.091Z,149852.38
2019-03-01T07:31:58.656Z,149844.75
2019-03-01T07:34:29.182Z,149853.61
2019-03-01T07:37:00.020Z,149854.89
2019-03-01T07:39:30.524Z,149851.09
2019-03-01T07:42:01.111Z,149852.38
2019-03-01T07:44:31.632Z,149854.89
2019-03-01T07:47:02.419Z,149858.73
2019-03-01T07:49:32.918Z,149858.73
2019-03-01T07:52:05.036Z,149852.38
2019-03-01T07:54:35.625Z,149848.53
2019-03-01T07:57:06.098Z,149840.95
2019-03-01T07:59:38.123Z,149842.19
2019-03-01T08:02:08.861Z,149835.88
2019-03-01T08:04:39.351Z,149842.19
2019-03-01T08:07:09.890Z,149839.67
2019-03-01T08:09:41.341Z,149838.39
2019-03-01T08:12:13.231Z,149829.52
2019-03-01T08:14:43.742Z,149826.97
2019-03-01T08:17:14.477Z,149829.52
2019-03-01T08:19:45.755Z,149840.95
2019-03-01T08:22:16.543Z,149834.59
2019-03-01T08:24:47.587Z,149837.11
2019-03-01T08:27:18.062Z,149832.03
2019-03-01T08:29:48.549Z,149821.89
2019-03-01T08:32:19.077Z,149809.19
2019-03-01T08:34:49.931Z,149788.89
2019-03-01T08:37:21.838Z,149781.25
2019-03-01T08:39:52.376Z,149740.62
2019-03-01T08:42:22.872Z,149727.94
2019-03-01T08:44:54.648Z,149705.09
2019-03-01T08:47:25.945Z,149703.84
2019-03-01T08:49:56.401Z,149687.31
2019-03-01T08:52:26.881Z,149670.83
2019-03-01T08:55:00.169Z,149667.03
2019-03-01T08:57:29.662Z,149653.05
2019-03-01T09:00:00.664Z,149642.91
2019-03-01T09:02:31.419Z,149646.70
2019-03-01T09:05:05.210Z,149658.13
2019-03-01T09:07:35.217Z,149644.19
2019-03-01T09:10:06.659Z,149634.06
2019-03-01T09:12:37.207Z,149628.98
2019-03-01T09:15:09.983Z,149620.08
2019-03-01T09:17:42.336Z,149618.80
2019-03-01T09:20:15.281Z,149623.86
2019-03-01T09:22:45.756Z,149623.86
2019-03-01T09:25:16.857Z,149625.14
2019-03-01T09:27:47.478Z,149598.52
2019-03-01T09:30:21.619Z,149604.86
2019-03-01T09:32:52.177Z,149598.52
2019-03-01T09:35:43.169Z,149595.95
2019-03-01T09:38:12.452Z,149593.44
2019-03-01T09:40:42.942Z,149601.03
2019-03-01T09:43:13.465Z,149592.16
2019-03-01T09:45:45.613Z,149603.59
2019-03-01T09:48:16.442Z,149616.28
2019-03-01T09:50:47.048Z,149598.52
2019-03-01T09:53:17.533Z,149617.56
2019-03-01T09:55:48.012Z,149616.28
2019-03-01T09:58:18.784Z,149613.72
2019-03-01T10:00:56.645Z,149616.28
2019-03-01T10:03:27.379Z,149617.56
2019-03-01T10:05:58.109Z,149611.22
2019-03-01T10:08:28.671Z,149622.63
2019-03-01T10:10:59.443Z,149621.36
2019-03-01T10:13:30.506Z,149626.42
2019-03-01T10:16:01.056Z,149644.19
2019-03-01T10:18:31.576Z,149659.41
2019-03-01T10:21:02.674Z,149658.13
2019-03-01T10:23:33.220Z,149642.91
2019-03-01T10:26:03.748Z,149634.06
2019-03-01T10:28:34.775Z,149623.86
2019-03-01T10:31:05.996Z,149618.80
2019-03-01T10:33:36.943Z,149611.22
2019-03-01T10:36:08.299Z,149618.80
2019-03-01T10:38:40.783Z,149616.28
2019-03-01T10:41:11.384Z,149625.14
2019-03-01T10:43:41.859Z,149631.48
2019-03-01T10:46:13.033Z,149626.42
2019-03-01T10:48:44.149Z,149634.06
2019-03-01T10:51:14.644Z,149635.28
2019-03-01T10:53:45.190Z,149632.78
2019-03-01T10:56:15.665Z,149650.53
2019-03-01T10:58:46.159Z,149647.98
2019-03-01T11:01:16.956Z,149640.41
2019-03-01T11:03:47.454Z,149646.70
2019-03-01T11:06:17.955Z,149639.12
2019-03-01T11:08:48.807Z,149635.28
2019-03-01T11:11:19.549Z,149628.98
2019-03-01T11:13:50.021Z,149631.48
2019-03-01T11:16:20.714Z,149623.86
2019-03-01T11:18:51.493Z,149618.80
2019-03-01T11:21:21.974Z,149627.70
2019-03-01T11:23:52.590Z,149639.12
2019-03-01T11:26:23.113Z,149646.70
2019-03-01T11:28:54.879Z,149635.28
2019-03-01T11:31:25.386Z,149644.19
2019-03-01T11:33:56.167Z,149647.98
2019-03-01T11:36:26.686Z,149661.97
2019-03-01T11:38:57.566Z,149672.09
2019-03-01T11:41:28.136Z,149674.66
2019-03-01T11:43:58.600Z,149667.03
2019-03-01T11:46:29.155Z,149665.75
2019-03-01T11:48:59.631Z,149656.89
2019-03-01T11:51:30.078Z,149636.56
2019-03-01T11:54:00.912Z,149651.81
2019-03-01T11:56:31.452Z,149661.97
2019-03-01T11:59:01.953Z,149664.47
2019-03-01T12:01:32.503Z,149664.47
2019-03-01T12:04:02.988Z,149670.83
2019-03-01T12:06:33.488Z,149654.33
2019-03-01T12:09:05.271Z,149660.69
2019-03-01T12:11:35.750Z,149660.69
2019-03-01T12:14:06.238Z,149672.09
2019-03-01T12:16:36.826Z,149665.75
2019-03-01T12:19:07.311Z,149661.97
2019-03-01T12:21:37.781Z,149673.38
2019-03-01T12:24:08.325Z,149661.97
2019-03-01T12:26:38.789Z,149658.13
2019-03-01T12:29:09.565Z,149663.23
2019-03-01T12:31:40.073Z,149665.75
2019-03-01T12:34:10.598Z,149661.97
2019-03-01T12:36:41.086Z,149647.98
2019-03-01T12:39:11.644Z,149664.47
2019-03-01T12:41:42.749Z,149675.89
2019-03-01T12:44:13.274Z,149654.33
2019-03-01T12:46:43.823Z,149621.36
2019-03-01T12:49:14.297Z,149593.44
2019-03-01T12:51:44.777Z,149578.19
2019-03-01T12:54:15.341Z,149537.55
2019-03-01T12:56:45.819Z,149529.97
2019-03-01T12:59:16.578Z,149529.97
2019-03-01T13:01:47.069Z,149484.31
2019-03-01T13:04:18.633Z,149485.55
2019-03-01T13:06:49.934Z,149477.97
2019-03-01T13:09:23.401Z,149448.80
2019-03-01T13:11:52.660Z,149451.31
2019-03-01T13:14:23.456Z,149469.06
2019-03-01T13:16:53.982Z,149420.91
2019-03-01T13:19:26.141Z,149434.83
2019-03-01T13:21:56.775Z,149423.41
2019-03-01T13:24:27.309Z,149438.66
2019-03-01T13:26:58.114Z,149422.19
2019-03-01T13:29:28.888Z,149441.17
2019-03-01T13:31:59.415Z,149443.72
2019-03-01T13:34:30.034Z,149457.66
2019-03-01T13:37:00.873Z,149455.14
2019-03-01T13:39:31.754Z,149458.94
2019-03-01T13:42:02.265Z,149477.97
2019-03-01T13:44:32.760Z,149474.13
2019-03-01T13:47:05.379Z,149481.75
2019-03-01T13:49:35.631Z,149485.55
2019-03-01T13:52:06.126Z,149485.55
2019-03-01T13:54:36.659Z,149489.38
2019-03-01T13:57:08.394Z,149491.89
2019-03-01T13:59:40.392Z,149471.63
2019-03-01T14:02:11.597Z,149470.34
2019-03-01T14:04:42.110Z,149470.34
2019-03-01T14:07:12.579Z,149466.56
2019-03-01T14:09:43.206Z,149456.42
2019-03-01T14:12:13.707Z,149446.23
2019-03-01T14:14:44.213Z,149464.00
2019-03-01T14:17:14.757Z,149442.45
2019-03-01T14:19:46.218Z,149437.39
2019-03-01T14:22:17.850Z,149434.83
2019-03-01T14:24:48.573Z,149434.83
2019-03-01T14:27:19.082Z,149437.39
2019-03-01T14:29:53.600Z,149409.50
2019-03-01T14:32:21.957Z,149417.06
2019-03-01T14:34:52.512Z,149395.53
2019-03-01T14:37:23.308Z,149403.16
2019-03-01T14:39:54.141Z,149399.31
2019-03-01T14:42:24.711Z,149382.84
2019-03-01T14:47:37.269Z,149372.70
2019-03-01T14:50:10.443Z,149370.20
2019-03-01T14:53:00.117Z,149367.64
2019-03-01T14:55:43.518Z,149368.92
2019-03-01T14:58:58.806Z,149349.89
2019-03-01T15:01:44.218Z,149354.97
2019-03-01T15:04:33.894Z,149351.17
2019-03-01T15:07:16.262Z,149356.23
2019-03-01T15:10:07.346Z,149333.42
2019-03-01T15:12:49.653Z,149346.11
2019-03-01T15:18:28.962Z,149356.23
2019-03-01T15:21:02.344Z,149348.61
2019-03-01T15:23:32.010Z,149353.69
2019-03-01T15:26:02.637Z,149351.17
2019-03-01T15:28:35.643Z,149343.55
2019-03-01T15:31:05.830Z,149343.55
2019-03-01T15:33:36.342Z,149333.42
2019-03-01T15:36:07.014Z,149341.03
2019-03-01T15:38:37.916Z,149339.77
2019-03-01T15:41:08.439Z,149339.77
2019-03-01T15:43:39.969Z,149354.97
2019-03-01T15:46:11.583Z,149349.89
2019-03-01T15:48:42.775Z,149353.69
2019-03-01T15:51:13.424Z,149358.80
2019-03-01T15:53:43.998Z,149347.38
2019-03-01T15:56:14.792Z,149357.52
2019-03-01T15:58:46.527Z,149352.45
2019-03-01T16:01:17.360Z,149349.89
2019-03-01T16:03:47.920Z,149347.38
2019-03-01T16:06:22.131Z,149343.55
2019-03-01T16:08:50.856Z,149344.83
2019-03-01T16:11:21.809Z,149342.27
2019-03-01T16:14:11.828Z,149352.45
2019-03-01T16:16:54.491Z,149362.58
2019-03-01T16:19:47.031Z,149347.38
2019-03-01T16:22:28.467Z,149344.83
2019-03-01T16:28:27.430Z,149347.38
2019-03-01T16:31:16.806Z,149348.61
2019-03-01T16:34:06.528Z,149339.77
2019-03-01T16:39:50.235Z,149352.45
2019-03-01T16:42:38.389Z,149339.77
2019-03-01T16:45:17.705Z,149338.48
2019-03-01T16:51:18.295Z,149339.77
2019-03-01T16:54:06.766Z,149337.20
2019-03-01T16:57:15.709Z,149310.61
2019-03-01T16:59:59.367Z,149305.55
2019-03-01T17:02:49.003Z,149306.81
2019-03-01T17:05:31.546Z,149300.47
2019-03-01T17:08:40.499Z,149290.30
2019-03-01T17:11:22.747Z,149285.23
2019-03-01T17:14:04.574Z,149284.00
2019-03-01T17:20:02.367Z,149282.73
2019-03-01T17:22:52.866Z,149281.45
2019-03-01T17:25:42.503Z,149270.05
2019-03-01T17:28:26.538Z,149261.19
2019-03-01T17:31:16.427Z,149266.27
2019-03-01T17:33:58.875Z,149261.19
2019-03-01T17:36:49.921Z,149261.19
2019-03-01T17:39:33.223Z,149259.92
2019-03-01T17:42:23.118Z,149258.64
2019-03-01T17:45:03.851Z,149251.02
2019-03-01T17:47:46.285Z,149235.83
2019-03-01T17:50:36.213Z,149223.16
2019-03-01T17:53:18.327Z,149215.53
2019-03-01T17:59:11.778Z,149209.25
2019-03-01T18:02:01.328Z,149204.13
2019-03-01T18:04:44.015Z,149202.91
2019-03-01T18:07:14.959Z,149202.91
2019-03-01T18:09:45.583Z,149209.25
2019-03-01T18:12:17.476Z,149204.13
2019-03-01T18:14:48.864Z,149206.69
2019-03-01T18:17:19.442Z,149204.13
2019-03-01T18:19:49.907Z,149209.25
2019-03-01T18:22:22.997Z,149215.53
2019-03-01T18:24:53.295Z,149210.47
2019-03-01T18:27:42.998Z,149202.91
2019-03-01T18:30:32.914Z,149207.97
2019-03-01T18:33:16.959Z,149196.56
2019-03-01T18:36:08.074Z,149191.50
2019-03-01T18:38:51.039Z,149197.84
2019-03-01T18:44:28.948Z,149191.50
2019-03-01T18:47:10.956Z,149195.28
2019-03-01T18:50:00.667Z,149186.44
2019-03-01T18:52:53.296Z,149196.56
2019-03-01T18:55:34.442Z,149195.28
2019-03-01T18:58:24.072Z,149182.61
2019-03-01T19:01:07.771Z,149192.73
2019-03-01T19:03:59.043Z,149182.61
2019-03-01T19:06:41.954Z,149176.27
2019-03-01T19:09:31.660Z,149175.03
2019-03-01T19:12:02.637Z,149169.94
2019-03-01T19:14:52.312Z,149176.27
2019-03-01T19:17:42.153Z,149182.61
2019-03-01T19:20:24.879Z,149169.94
2019-03-01T19:23:14.628Z,149180.09
2019-03-01T19:25:57.867Z,149177.55
2019-03-01T19:28:48.595Z,149195.28
2019-03-01T19:31:30.991Z,149183.89
2019-03-01T19:34:20.908Z,149180.09
2019-03-01T19:37:03.464Z,149180.09
2019-03-01T19:43:00.947Z,149169.94
2019-03-01T19:45:50.678Z,149172.48
2019-03-01T19:48:34.439Z,149178.83
2019-03-01T19:51:24.756Z,149164.88
2019-03-01T19:54:08.325Z,149173.77
2019-03-01T20:00:05.695Z,149176.27
2019-03-01T20:02:55.303Z,149164.88
2019-03-01T20:05:45.835Z,149162.36
2019-03-01T20:08:29.802Z,149157.30
2019-03-01T20:11:38.738Z,149158.53
2019-03-01T20:14:20.494Z,149157.30
2019-03-01T20:19:58.329Z,149168.70
2019-03-01T20:22:50.438Z,149152.23
2019-03-01T20:25:32.784Z,149157.30
2019-03-01T20:28:41.591Z,149138.28
2019-03-01T20:31:24.609Z,149150.97
2019-03-01T20:34:06.709Z,149154.75
2019-03-01T20:36:56.363Z,149150.97
2019-03-01T20:39:39.353Z,149149.69
2019-03-01T20:42:10.017Z,149149.69
2019-03-01T20:44:59.726Z,149145.91
2019-03-01T20:47:41.764Z,149152.23
2019-03-01T20:50:22.864Z,149153.47
2019-03-01T20:53:13.358Z,149140.84
2019-03-01T20:55:57.017Z,149149.69
2019-03-01T20:58:46.756Z,149144.62
2019-03-01T21:01:27.829Z,149147.12
2019-03-01T21:04:17.425Z,149142.06
2019-03-01T21:07:00.121Z,149140.84
2019-03-01T21:09:30.916Z,149139.56
2019-03-01T21:12:01.919Z,149145.91
2019-03-01T21:14:51.536Z,149147.12
2019-03-01T21:17:32.151Z,149152.23
2019-03-01T21:20:15.876Z,149150.97
2019-03-01T21:23:04.857Z,149142.06
2019-03-01T21:25:46.715Z,149143.34
2019-03-01T21:28:36.629Z,149148.41
2019-03-01T21:31:08.963Z,149142.06
2019-03-01T21:33:59.343Z,149149.69
2019-03-01T21:36:42.550Z,149145.91
2019-03-01T21:39:32.211Z,149145.91
2019-03-01T21:42:16.880Z,149150.97
2019-03-01T21:45:06.397Z,149154.75
2019-03-01T21:47:49.162Z,149152.23
2019-03-01T21:50:19.862Z,149147.12
2019-03-01T21:53:05.487Z,149145.91
2019-03-01T21:55:53.780Z,149162.36
2019-03-01T21:58:38.567Z,149153.47
2019-03-01T22:01:27.936Z,149159.81
2019-03-01T22:04:09.863Z,149156.03
2019-03-01T22:10:01.328Z,149157.30
2019-03-01T22:12:50.939Z,149172.48
2019-03-01T22:15:32.809Z,149175.03
2019-03-01T22:18:23.624Z,149162.36
2019-03-01T22:21:06.120Z,149182.61
2019-03-01T22:23:56.031Z,149176.27
2019-03-01T22:26:38.354Z,149182.61
2019-03-01T22:29:28.005Z,149183.89
2019-03-01T22:32:11.370Z,149191.50
2019-03-01T22:35:03.193Z,149192.73
2019-03-01T22:37:44.499Z,149195.28
2019-03-01T22:43:41.520Z,149177.55
2019-03-01T22:49:13.166Z,149185.16
2019-03-01T22:55:04.756Z,149182.61
2019-03-01T22:57:47.630Z,149185.16
2019-03-01T23:01:16.361Z,149187.67
2019-03-01T23:04:00.534Z,149192.73
2019-03-01T23:06:51.487Z,149187.67
2019-03-01T23:09:34.285Z,149201.62
2019-03-01T23:15:31.785Z,149195.28
2019-03-01T23:21:16.316Z,149195.28
2019-03-01T23:23:47.408Z,149191.50
2019-03-01T23:26:56.865Z,149187.67
2019-03-01T23:29:40.545Z,149200.34
2019-03-01T23:32:30.136Z,149183.89
2019-03-01T23:35:14.628Z,149178.83
2019-03-01T23:40:51.400Z,149178.83
2019-03-01T23:43:41.009Z,149175.03
2019-03-01T23:46:25.650Z,149178.83
2019-03-01T23:52:02.766Z,149162.36
2019-03-01T23:54:47.741Z,149159.81
